Altamont, Missouri
Current Conditions -  °F | °C
As of 5:55 PM on Saturday 25 Oct 2014 (Local Time) from KGPH Reporting Station
Clear Clear  
Wind Chill: 79°   Ceiling: Unl
Heat Index: 79°   Visibility: 10mi
Dew Point: 48°   Wind: 0mph
Humidity: 34%   Direction: NA
Pressure: 30.01"   Gusts: NA
Location:  39.89°N, 94.09°W
Report Text: KGPH 252255Z AUTO 00000KT 10SM CLR 26/09 A3001 RMK AO2
Loading
Personal Weather Stations






























Interactive Weather Map
Tropical Storm Tracking
New forecast layout! Learn more

10-Day Weather Forecast

Advertisements
Track Severe Weather on mobile